sensor_id;sensor_type;location;lat;lon;timestamp;P1;durP1;ratioP1;P2;durP2;ratioP2
73452;SDS011;61687;56.232;43.854;2023-10-19T00:00:33;16.80;;;8.82;;
73452;SDS011;61687;56.232;43.854;2023-10-19T00:02:59;16.10;;;8.57;;
73452;SDS011;61687;56.232;43.854;2023-10-19T00:05:29;16.47;;;8.03;;
73452;SDS011;61687;56.232;43.854;2023-10-19T00:07:57;15.02;;;8.27;;
73452;SDS011;61687;56.232;43.854;2023-10-19T00:10:25;15.95;;;8.23;;
73452;SDS011;61687;56.232;43.854;2023-10-19T00:12:58;17.92;;;8.13;;
73452;SDS011;61687;56.232;43.854;2023-10-19T00:15:34;17.08;;;8.52;;
73452;SDS011;61687;56.232;43.854;2023-10-19T00:18:06;17.07;;;8.07;;
73452;SDS011;61687;56.232;43.854;2023-10-19T00:20:46;15.95;;;7.57;;
73452;SDS011;61687;56.232;43.854;2023-10-19T00:23:23;16.75;;;8.40;;
73452;SDS011;61687;56.232;43.854;2023-10-19T00:25:58;15.57;;;8.00;;
73452;SDS011;61687;56.232;43.854;2023-10-19T00:28:26;15.15;;;8.98;;
73452;SDS011;61687;56.232;43.854;2023-10-19T00:30:53;16.17;;;8.57;;
73452;SDS011;61687;56.232;43.854;2023-10-19T00:33:25;17.17;;;9.15;;
73452;SDS011;61687;56.232;43.854;2023-10-19T00:35:54;17.90;;;8.73;;
73452;SDS011;61687;56.232;43.854;2023-10-19T00:38:33;18.67;;;8.68;;
73452;SDS011;61687;56.232;43.854;2023-10-19T00:41:04;16.08;;;8.05;;
73452;SDS011;61687;56.232;43.854;2023-10-19T00:43:34;16.63;;;8.47;;
73452;SDS011;61687;56.232;43.854;2023-10-19T00:46:02;16.02;;;8.38;;
73452;SDS011;61687;56.232;43.854;2023-10-19T00:48:47;14.48;;;8.10;;
73452;SDS011;61687;56.232;43.854;2023-10-19T00:51:16;16.60;;;8.48;;
73452;SDS011;61687;56.232;43.854;2023-10-19T00:53:58;16.73;;;8.50;;
73452;SDS011;61687;56.232;43.854;2023-10-19T00:56:41;14.70;;;8.03;;
73452;SDS011;61687;56.232;43.854;2023-10-19T00:59:19;14.00;;;8.23;;
73452;SDS011;61687;56.232;43.854;2023-10-19T01:01:55;13.80;;;7.38;;
73452;SDS011;61687;56.232;43.854;2023-10-19T01:04:41;13.65;;;7.57;;
73452;SDS011;61687;56.232;43.854;2023-10-19T01:07:11;14.40;;;7.50;;
73452;SDS011;61687;56.232;43.854;2023-10-19T01:09:58;12.47;;;7.13;;
73452;SDS011;61687;56.232;43.854;2023-10-19T01:12:26;14.68;;;7.60;;
73452;SDS011;61687;56.232;43.854;2023-10-19T01:18:04;15.35;;;7.00;;
73452;SDS011;61687;56.232;43.854;2023-10-19T01:20:32;14.85;;;7.65;;
73452;SDS011;61687;56.232;43.854;2023-10-19T01:23:06;14.13;;;7.00;;
73452;SDS011;61687;56.232;43.854;2023-10-19T01:28:28;13.43;;;7.70;;
73452;SDS011;61687;56.232;43.854;2023-10-19T01:31:14;14.63;;;7.45;;
73452;SDS011;61687;56.232;43.854;2023-10-19T01:34:08;12.95;;;7.38;;
73452;SDS011;61687;56.232;43.854;2023-10-19T01:36:35;17.17;;;7.70;;
73452;SDS011;61687;56.232;43.854;2023-10-19T01:39:08;13.93;;;7.32;;
73452;SDS011;61687;56.232;43.854;2023-10-19T01:41:38;12.88;;;7.70;;
73452;SDS011;61687;56.232;43.854;2023-10-19T01:44:06;17.20;;;7.60;;
73452;SDS011;61687;56.232;43.854;2023-10-19T01:46:33;13.63;;;7.45;;
73452;SDS011;61687;56.232;43.854;2023-10-19T01:49:02;14.93;;;7.17;;
73452;SDS011;61687;56.232;43.854;2023-10-19T01:51:30;14.23;;;7.15;;
73452;SDS011;61687;56.232;43.854;2023-10-19T01:53:58;13.23;;;7.53;;
73452;SDS011;61687;56.232;43.854;2023-10-19T01:56:28;13.90;;;7.60;;
73452;SDS011;61687;56.232;43.854;2023-10-19T01:58:55;12.10;;;7.45;;
73452;SDS011;61687;56.232;43.854;2023-10-19T02:01:22;12.13;;;6.80;;
73452;SDS011;61687;56.232;43.854;2023-10-19T02:03:51;14.95;;;6.65;;
73452;SDS011;61687;56.232;43.854;2023-10-19T02:06:23;12.20;;;7.38;;
73452;SDS011;61687;56.232;43.854;2023-10-19T02:08:58;11.48;;;7.30;;
73452;SDS011;61687;56.232;43.854;2023-10-19T02:11:27;12.98;;;7.00;;
73452;SDS011;61687;56.232;43.854;2023-10-19T02:13:56;14.67;;;6.97;;
73452;SDS011;61687;56.232;43.854;2023-10-19T02:16:30;12.75;;;6.07;;
73452;SDS011;61687;56.232;43.854;2023-10-19T02:18:58;13.43;;;7.05;;
73452;SDS011;61687;56.232;43.854;2023-10-19T02:21:59;12.13;;;6.85;;
73452;SDS011;61687;56.232;43.854;2023-10-19T02:24:30;12.00;;;6.40;;
73452;SDS011;61687;56.232;43.854;2023-10-19T02:26:58;13.50;;;6.40;;
73452;SDS011;61687;56.232;43.854;2023-10-19T02:29:28;12.02;;;7.07;;
73452;SDS011;61687;56.232;43.854;2023-10-19T02:31:55;15.00;;;6.95;;
73452;SDS011;61687;56.232;43.854;2023-10-19T02:34:23;12.85;;;7.38;;
73452;SDS011;61687;56.232;43.854;2023-10-19T02:36:49;14.05;;;7.82;;
73452;SDS011;61687;56.232;43.854;2023-10-19T02:39:15;13.97;;;7.13;;
73452;SDS011;61687;56.232;43.854;2023-10-19T02:41:45;11.20;;;6.47;;
73452;SDS011;61687;56.232;43.854;2023-10-19T02:44:15;13.18;;;7.25;;
73452;SDS011;61687;56.232;43.854;2023-10-19T02:46:52;13.90;;;7.25;;
73452;SDS011;61687;56.232;43.854;2023-10-19T02:49:24;13.88;;;7.50;;
73452;SDS011;61687;56.232;43.854;2023-10-19T02:51:52;15.13;;;7.37;;
73452;SDS011;61687;56.232;43.854;2023-10-19T02:54:20;14.27;;;7.68;;
73452;SDS011;61687;56.232;43.854;2023-10-19T02:56:49;14.02;;;7.13;;
73452;SDS011;61687;56.232;43.854;2023-10-19T02:59:17;13.40;;;7.20;;
73452;SDS011;61687;56.232;43.854;2023-10-19T03:01:51;13.65;;;7.07;;
73452;SDS011;61687;56.232;43.854;2023-10-19T03:04:27;12.57;;;7.00;;
73452;SDS011;61687;56.232;43.854;2023-10-19T03:06:56;13.00;;;6.93;;
73452;SDS011;61687;56.232;43.854;2023-10-19T03:09:22;13.18;;;7.20;;
73452;SDS011;61687;56.232;43.854;2023-10-19T03:11:54;13.18;;;7.28;;
73452;SDS011;61687;56.232;43.854;2023-10-19T03:14:31;12.85;;;7.05;;
73452;SDS011;61687;56.232;43.854;2023-10-19T03:16:58;12.27;;;6.43;;
73452;SDS011;61687;56.232;43.854;2023-10-19T03:19:25;11.65;;;6.88;;
73452;SDS011;61687;56.232;43.854;2023-10-19T03:21:53;12.00;;;6.60;;
73452;SDS011;61687;56.232;43.854;2023-10-19T03:24:21;12.95;;;6.97;;
73452;SDS011;61687;56.232;43.854;2023-10-19T03:27:11;15.60;;;7.25;;
73452;SDS011;61687;56.232;43.854;2023-10-19T03:29:48;15.20;;;7.10;;
73452;SDS011;61687;56.232;43.854;2023-10-19T03:32:20;12.55;;;6.68;;
73452;SDS011;61687;56.232;43.854;2023-10-19T03:34:53;13.07;;;7.80;;
73452;SDS011;61687;56.232;43.854;2023-10-19T03:37:22;11.57;;;7.07;;
73452;SDS011;61687;56.232;43.854;2023-10-19T03:39:51;12.70;;;7.22;;
73452;SDS011;61687;56.232;43.854;2023-10-19T03:42:17;14.40;;;7.23;;
73452;SDS011;61687;56.232;43.854;2023-10-19T03:44:46;12.05;;;6.85;;
73452;SDS011;61687;56.232;43.854;2023-10-19T03:47:15;12.05;;;6.63;;
73452;SDS011;61687;56.232;43.854;2023-10-19T03:49:46;10.90;;;6.50;;
73452;SDS011;61687;56.232;43.854;2023-10-19T03:52:13;12.43;;;7.22;;
73452;SDS011;61687;56.232;43.854;2023-10-19T03:54:40;11.37;;;6.40;;
73452;SDS011;61687;56.232;43.854;2023-10-19T03:57:14;11.82;;;6.22;;
73452;SDS011;61687;56.232;43.854;2023-10-19T03:59:47;11.95;;;6.63;;
73452;SDS011;61687;56.232;43.854;2023-10-19T04:02:18;10.30;;;6.28;;
73452;SDS011;61687;56.232;43.854;2023-10-19T04:04:46;12.02;;;6.78;;
73452;SDS011;61687;56.232;43.854;2023-10-19T04:07:17;10.10;;;5.93;;
73452;SDS011;61687;56.232;43.854;2023-10-19T04:09:50;10.35;;;5.97;;
73452;SDS011;61687;56.232;43.854;2023-10-19T04:12:30;10.68;;;6.20;;
73452;SDS011;61687;56.232;43.854;2023-10-19T04:14:57;12.95;;;6.63;;
73452;SDS011;61687;56.232;43.854;2023-10-19T04:17:37;11.85;;;6.47;;
73452;SDS011;61687;56.232;43.854;2023-10-19T04:20:08;11.03;;;6.23;;
73452;SDS011;61687;56.232;43.854;2023-10-19T04:22:45;10.60;;;5.50;;
73452;SDS011;61687;56.232;43.854;2023-10-19T04:25:16;10.48;;;6.38;;
73452;SDS011;61687;56.232;43.854;2023-10-19T04:27:50;11.95;;;6.07;;
73452;SDS011;61687;56.232;43.854;2023-10-19T04:30:16;11.52;;;6.22;;
73452;SDS011;61687;56.232;43.854;2023-10-19T04:32:44;10.90;;;6.77;;
73452;SDS011;61687;56.232;43.854;2023-10-19T04:35:13;11.32;;;6.45;;
73452;SDS011;61687;56.232;43.854;2023-10-19T04:37:49;10.90;;;6.65;;
73452;SDS011;61687;56.232;43.854;2023-10-19T04:40:18;13.55;;;6.55;;
73452;SDS011;61687;56.232;43.854;2023-10-19T04:42:45;11.50;;;6.40;;
73452;SDS011;61687;56.232;43.854;2023-10-19T04:45:12;14.27;;;6.80;;
73452;SDS011;61687;56.232;43.854;2023-10-19T04:47:38;11.98;;;6.60;;
73452;SDS011;61687;56.232;43.854;2023-10-19T04:50:05;10.77;;;6.30;;
73452;SDS011;61687;56.232;43.854;2023-10-19T04:52:32;14.77;;;6.95;;
73452;SDS011;61687;56.232;43.854;2023-10-19T04:54:58;12.50;;;6.95;;
73452;SDS011;61687;56.232;43.854;2023-10-19T04:57:24;12.13;;;7.13;;
73452;SDS011;61687;56.232;43.854;2023-10-19T04:59:51;14.70;;;7.40;;
73452;SDS011;61687;56.232;43.854;2023-10-19T05:02:17;16.52;;;8.52;;
73452;SDS011;61687;56.232;43.854;2023-10-19T05:04:43;13.15;;;7.97;;
73452;SDS011;61687;56.232;43.854;2023-10-19T05:07:10;13.10;;;7.65;;
73452;SDS011;61687;56.232;43.854;2023-10-19T05:09:45;14.03;;;6.70;;
73452;SDS011;61687;56.232;43.854;2023-10-19T05:12:14;14.18;;;6.57;;
73452;SDS011;61687;56.232;43.854;2023-10-19T05:14:41;14.23;;;7.32;;
73452;SDS011;61687;56.232;43.854;2023-10-19T05:17:09;17.08;;;6.80;;
73452;SDS011;61687;56.232;43.854;2023-10-19T05:19:36;14.98;;;6.45;;
73452;SDS011;61687;56.232;43.854;2023-10-19T05:22:04;14.33;;;6.60;;
73452;SDS011;61687;56.232;43.854;2023-10-19T05:24:31;16.52;;;6.80;;
73452;SDS011;61687;56.232;43.854;2023-10-19T05:26:58;14.00;;;6.88;;
73452;SDS011;61687;56.232;43.854;2023-10-19T05:29:24;15.15;;;5.90;;
73452;SDS011;61687;56.232;43.854;2023-10-19T05:31:50;15.40;;;7.13;;
73452;SDS011;61687;56.232;43.854;2023-10-19T05:34:20;15.20;;;6.35;;
73452;SDS011;61687;56.232;43.854;2023-10-19T05:36:47;12.05;;;6.75;;
73452;SDS011;61687;56.232;43.854;2023-10-19T05:39:18;15.13;;;7.00;;
73452;SDS011;61687;56.232;43.854;2023-10-19T05:41:44;13.43;;;5.80;;
73452;SDS011;61687;56.232;43.854;2023-10-19T05:44:10;18.37;;;6.00;;
73452;SDS011;61687;56.232;43.854;2023-10-19T05:46:36;11.90;;;5.68;;
73452;SDS011;61687;56.232;43.854;2023-10-19T05:49:03;9.05;;;5.72;;
73452;SDS011;61687;56.232;43.854;2023-10-19T05:51:31;11.35;;;6.20;;
73452;SDS011;61687;56.232;43.854;2023-10-19T05:53:57;10.48;;;5.50;;
73452;SDS011;61687;56.232;43.854;2023-10-19T05:56:30;9.43;;;4.65;;
73452;SDS011;61687;56.232;43.854;2023-10-19T05:58:57;10.10;;;4.63;;
73452;SDS011;61687;56.232;43.854;2023-10-19T06:01:24;9.90;;;4.72;;
73452;SDS011;61687;56.232;43.854;2023-10-19T06:03:50;9.03;;;4.93;;
73452;SDS011;61687;56.232;43.854;2023-10-19T06:06:17;13.68;;;4.70;;
73452;SDS011;61687;56.232;43.854;2023-10-19T06:08:45;9.02;;;5.05;;
73452;SDS011;61687;56.232;43.854;2023-10-19T06:11:12;8.38;;;4.63;;
73452;SDS011;61687;56.232;43.854;2023-10-19T06:13:39;8.98;;;5.03;;
73452;SDS011;61687;56.232;43.854;2023-10-19T06:16:05;8.77;;;4.97;;
73452;SDS011;61687;56.232;43.854;2023-10-19T06:18:31;10.82;;;5.80;;
73452;SDS011;61687;56.232;43.854;2023-10-19T06:20:57;11.95;;;5.70;;
73452;SDS011;61687;56.232;43.854;2023-10-19T06:23:23;12.00;;;6.60;;
73452;SDS011;61687;56.232;43.854;2023-10-19T06:25:49;11.88;;;6.55;;
73452;SDS011;61687;56.232;43.854;2023-10-19T06:28:17;12.38;;;6.30;;
73452;SDS011;61687;56.232;43.854;2023-10-19T06:30:44;13.43;;;6.68;;
73452;SDS011;61687;56.232;43.854;2023-10-19T06:33:10;18.23;;;8.32;;
73452;SDS011;61687;56.232;43.854;2023-10-19T06:35:38;16.48;;;7.93;;
73452;SDS011;61687;56.232;43.854;2023-10-19T06:38:05;19.05;;;8.23;;
73452;SDS011;61687;56.232;43.854;2023-10-19T06:40:34;18.63;;;9.07;;
73452;SDS011;61687;56.232;43.854;2023-10-19T06:43:01;16.88;;;8.50;;
73452;SDS011;61687;56.232;43.854;2023-10-19T06:45:28;18.70;;;10.48;;
73452;SDS011;61687;56.232;43.854;2023-10-19T06:47:57;17.10;;;10.63;;
73452;SDS011;61687;56.232;43.854;2023-10-19T06:50:25;22.23;;;10.23;;
73452;SDS011;61687;56.232;43.854;2023-10-19T06:52:52;19.35;;;9.65;;
73452;SDS011;61687;56.232;43.854;2023-10-19T06:55:20;19.02;;;10.93;;
73452;SDS011;61687;56.232;43.854;2023-10-19T06:57:50;17.75;;;10.43;;
73452;SDS011;61687;56.232;43.854;2023-10-19T07:00:19;22.63;;;11.15;;
73452;SDS011;61687;56.232;43.854;2023-10-19T07:02:46;19.27;;;10.85;;
73452;SDS011;61687;56.232;43.854;2023-10-19T07:05:13;20.23;;;10.75;;
73452;SDS011;61687;56.232;43.854;2023-10-19T07:07:44;24.77;;;11.45;;
73452;SDS011;61687;56.232;43.854;2023-10-19T07:10:11;22.95;;;11.77;;
73452;SDS011;61687;56.232;43.854;2023-10-19T07:12:43;23.13;;;11.50;;
73452;SDS011;61687;56.232;43.854;2023-10-19T07:15:13;21.80;;;11.10;;
73452;SDS011;61687;56.232;43.854;2023-10-19T07:17:40;22.33;;;11.75;;
73452;SDS011;61687;56.232;43.854;2023-10-19T07:20:07;25.50;;;12.02;;
73452;SDS011;61687;56.232;43.854;2023-10-19T07:22:35;21.42;;;11.50;;
73452;SDS011;61687;56.232;43.854;2023-10-19T07:25:05;21.73;;;11.57;;
73452;SDS011;61687;56.232;43.854;2023-10-19T07:27:34;21.13;;;11.48;;
73452;SDS011;61687;56.232;43.854;2023-10-19T07:30:00;21.25;;;11.60;;
73452;SDS011;61687;56.232;43.854;2023-10-19T07:32:31;18.85;;;11.48;;
73452;SDS011;61687;56.232;43.854;2023-10-19T07:34:56;20.80;;;12.47;;
73452;SDS011;61687;56.232;43.854;2023-10-19T07:37:22;22.08;;;12.10;;
73452;SDS011;61687;56.232;43.854;2023-10-19T07:39:48;23.15;;;11.63;;
73452;SDS011;61687;56.232;43.854;2023-10-19T07:42:15;22.80;;;12.90;;
73452;SDS011;61687;56.232;43.854;2023-10-19T07:44:43;23.13;;;12.70;;
73452;SDS011;61687;56.232;43.854;2023-10-19T07:47:11;23.35;;;12.32;;
73452;SDS011;61687;56.232;43.854;2023-10-19T07:49:38;26.25;;;13.00;;
73452;SDS011;61687;56.232;43.854;2023-10-19T07:52:05;19.17;;;11.27;;
73452;SDS011;61687;56.232;43.854;2023-10-19T07:54:36;21.13;;;11.30;;
73452;SDS011;61687;56.232;43.854;2023-10-19T07:57:03;19.83;;;10.47;;
73452;SDS011;61687;56.232;43.854;2023-10-19T07:59:33;21.40;;;11.55;;
73452;SDS011;61687;56.232;43.854;2023-10-19T08:01:59;18.33;;;9.95;;
73452;SDS011;61687;56.232;43.854;2023-10-19T08:04:28;17.98;;;10.52;;
73452;SDS011;61687;56.232;43.854;2023-10-19T08:06:55;16.80;;;9.65;;
73452;SDS011;61687;56.232;43.854;2023-10-19T08:09:22;15.47;;;8.80;;
73452;SDS011;61687;56.232;43.854;2023-10-19T08:11:49;16.80;;;9.63;;
73452;SDS011;61687;56.232;43.854;2023-10-19T08:14:23;16.10;;;9.55;;
73452;SDS011;61687;56.232;43.854;2023-10-19T08:16:50;13.95;;;9.13;;
73452;SDS011;61687;56.232;43.854;2023-10-19T08:19:17;16.63;;;8.73;;
73452;SDS011;61687;56.232;43.854;2023-10-19T08:21:44;18.77;;;9.17;;
73452;SDS011;61687;56.232;43.854;2023-10-19T08:24:10;14.30;;;8.77;;
73452;SDS011;61687;56.232;43.854;2023-10-19T08:26:39;15.88;;;8.80;;
73452;SDS011;61687;56.232;43.854;2023-10-19T08:29:07;14.85;;;8.75;;
73452;SDS011;61687;56.232;43.854;2023-10-19T08:31:41;15.27;;;8.00;;
73452;SDS011;61687;56.232;43.854;2023-10-19T08:34:08;16.27;;;9.13;;
73452;SDS011;61687;56.232;43.854;2023-10-19T08:36:37;17.13;;;8.93;;
73452;SDS011;61687;56.232;43.854;2023-10-19T08:39:07;16.25;;;9.38;;
73452;SDS011;61687;56.232;43.854;2023-10-19T08:41:34;14.25;;;8.45;;
73452;SDS011;61687;56.232;43.854;2023-10-19T08:44:01;17.73;;;9.82;;
73452;SDS011;61687;56.232;43.854;2023-10-19T08:46:28;16.50;;;8.70;;
73452;SDS011;61687;56.232;43.854;2023-10-19T08:48:57;15.70;;;8.85;;
73452;SDS011;61687;56.232;43.854;2023-10-19T08:51:24;17.50;;;9.68;;
73452;SDS011;61687;56.232;43.854;2023-10-19T08:53:52;13.70;;;8.55;;
73452;SDS011;61687;56.232;43.854;2023-10-19T08:56:19;14.60;;;8.88;;
73452;SDS011;61687;56.232;43.854;2023-10-19T08:58:50;14.10;;;7.83;;
73452;SDS011;61687;56.232;43.854;2023-10-19T09:01:18;16.60;;;9.90;;
73452;SDS011;61687;56.232;43.854;2023-10-19T09:03:46;15.68;;;9.32;;
73452;SDS011;61687;56.232;43.854;2023-10-19T09:06:12;16.60;;;9.23;;
73452;SDS011;61687;56.232;43.854;2023-10-19T09:08:40;15.10;;;9.18;;
73452;SDS011;61687;56.232;43.854;2023-10-19T09:11:07;18.45;;;9.20;;
73452;SDS011;61687;56.232;43.854;2023-10-19T09:13:57;17.73;;;9.48;;
73452;SDS011;61687;56.232;43.854;2023-10-19T09:16:24;15.35;;;9.05;;
73452;SDS011;61687;56.232;43.854;2023-10-19T09:18:52;18.17;;;8.97;;
73452;SDS011;61687;56.232;43.854;2023-10-19T09:21:18;15.77;;;9.20;;
73452;SDS011;61687;56.232;43.854;2023-10-19T09:23:52;18.40;;;9.30;;
73452;SDS011;61687;56.232;43.854;2023-10-19T09:26:20;16.20;;;9.05;;
73452;SDS011;61687;56.232;43.854;2023-10-19T09:28:48;16.48;;;9.25;;
73452;SDS011;61687;56.232;43.854;2023-10-19T09:31:14;16.07;;;9.27;;
73452;SDS011;61687;56.232;43.854;2023-10-19T09:33:45;15.15;;;9.20;;
73452;SDS011;61687;56.232;43.854;2023-10-19T09:36:13;16.38;;;10.55;;
73452;SDS011;61687;56.232;43.854;2023-10-19T09:38:49;20.20;;;9.05;;
73452;SDS011;61687;56.232;43.854;2023-10-19T09:41:18;12.00;;;7.15;;
73452;SDS011;61687;56.232;43.854;2023-10-19T09:43:46;12.80;;;7.03;;
73452;SDS011;61687;56.232;43.854;2023-10-19T09:46:24;11.18;;;7.57;;
73452;SDS011;61687;56.232;43.854;2023-10-19T09:48:54;20.17;;;7.25;;
73452;SDS011;61687;56.232;43.854;2023-10-19T09:51:21;13.02;;;7.35;;
73452;SDS011;61687;56.232;43.854;2023-10-19T09:53:49;10.68;;;6.63;;
73452;SDS011;61687;56.232;43.854;2023-10-19T09:56:33;11.33;;;7.43;;
73452;SDS011;61687;56.232;43.854;2023-10-19T09:59:11;10.65;;;6.53;;
73452;SDS011;61687;56.232;43.854;2023-10-19T10:02:08;9.40;;;6.00;;
73452;SDS011;61687;56.232;43.854;2023-10-19T10:04:39;11.07;;;6.95;;
73452;SDS011;61687;56.232;43.854;2023-10-19T10:07:10;11.40;;;6.43;;
73452;SDS011;61687;56.232;43.854;2023-10-19T10:09:37;9.43;;;6.03;;
73452;SDS011;61687;56.232;43.854;2023-10-19T10:14:59;11.90;;;6.90;;
73452;SDS011;61687;56.232;43.854;2023-10-19T10:17:36;10.27;;;6.55;;
73452;SDS011;61687;56.232;43.854;2023-10-19T10:22:41;12.60;;;6.37;;
73452;SDS011;61687;56.232;43.854;2023-10-19T10:25:07;10.55;;;7.35;;
73452;SDS011;61687;56.232;43.854;2023-10-19T10:27:36;10.77;;;6.72;;
73452;SDS011;61687;56.232;43.854;2023-10-19T10:30:16;10.80;;;7.13;;
73452;SDS011;61687;56.232;43.854;2023-10-19T10:35:58;11.40;;;6.47;;
73452;SDS011;61687;56.232;43.854;2023-10-19T10:38:04;11.65;;;6.47;;
73452;SDS011;61687;56.232;43.854;2023-10-19T10:40:31;11.05;;;6.68;;
73452;SDS011;61687;56.232;43.854;2023-10-19T10:43:11;10.27;;;6.05;;
73452;SDS011;61687;56.232;43.854;2023-10-19T10:45:37;11.45;;;6.22;;
73452;SDS011;61687;56.232;43.854;2023-10-19T10:48:04;11.23;;;6.07;;
73452;SDS011;61687;56.232;43.854;2023-10-19T10:50:37;10.68;;;5.85;;
73452;SDS011;61687;56.232;43.854;2023-10-19T10:53:05;10.50;;;6.78;;
73452;SDS011;61687;56.232;43.854;2023-10-19T10:55:31;9.88;;;6.45;;
73452;SDS011;61687;56.232;43.854;2023-10-19T10:57:57;10.95;;;6.55;;
73452;SDS011;61687;56.232;43.854;2023-10-19T11:00:25;11.73;;;6.70;;
73452;SDS011;61687;56.232;43.854;2023-10-19T11:03:03;9.55;;;6.35;;
73452;SDS011;61687;56.232;43.854;2023-10-19T11:05:35;12.55;;;6.90;;
73452;SDS011;61687;56.232;43.854;2023-10-19T11:10:39;10.93;;;7.55;;
73452;SDS011;61687;56.232;43.854;2023-10-19T11:13:10;10.63;;;7.33;;
73452;SDS011;61687;56.232;43.854;2023-10-19T11:15:37;13.60;;;7.55;;
73452;SDS011;61687;56.232;43.854;2023-10-19T11:18:04;10.95;;;7.20;;
73452;SDS011;61687;56.232;43.854;2023-10-19T11:20:34;11.18;;;7.43;;
73452;SDS011;61687;56.232;43.854;2023-10-19T11:23:01;11.20;;;7.43;;
73452;SDS011;61687;56.232;43.854;2023-10-19T11:25:28;13.73;;;7.73;;
73452;SDS011;61687;56.232;43.854;2023-10-19T11:30:23;11.35;;;7.30;;
73452;SDS011;61687;56.232;43.854;2023-10-19T11:32:52;13.90;;;7.75;;
73452;SDS011;61687;56.232;43.854;2023-10-19T11:35:23;12.27;;;8.35;;
73452;SDS011;61687;56.232;43.854;2023-10-19T11:37:59;12.73;;;7.80;;
73452;SDS011;61687;56.232;43.854;2023-10-19T11:40:27;16.08;;;8.32;;
73452;SDS011;61687;56.232;43.854;2023-10-19T11:42:53;11.10;;;7.68;;
73452;SDS011;61687;56.232;43.854;2023-10-19T11:45:24;12.73;;;7.53;;
73452;SDS011;61687;56.232;43.854;2023-10-19T11:47:50;12.77;;;8.60;;
73452;SDS011;61687;56.232;43.854;2023-10-19T11:50:16;12.07;;;8.43;;
73452;SDS011;61687;56.232;43.854;2023-10-19T11:52:44;12.45;;;8.73;;
73452;SDS011;61687;56.232;43.854;2023-10-19T11:55:15;14.25;;;9.20;;
73452;SDS011;61687;56.232;43.854;2023-10-19T11:57:42;13.43;;;8.88;;
73452;SDS011;61687;56.232;43.854;2023-10-19T12:00:10;13.82;;;9.23;;
73452;SDS011;61687;56.232;43.854;2023-10-19T12:02:39;14.77;;;9.07;;
73452;SDS011;61687;56.232;43.854;2023-10-19T12:05:09;13.43;;;8.38;;
73452;SDS011;61687;56.232;43.854;2023-10-19T12:07:37;16.30;;;9.40;;
73452;SDS011;61687;56.232;43.854;2023-10-19T12:10:05;14.88;;;9.73;;
73452;SDS011;61687;56.232;43.854;2023-10-19T12:12:34;17.35;;;9.65;;
73452;SDS011;61687;56.232;43.854;2023-10-19T12:15:00;14.83;;;9.30;;
73452;SDS011;61687;56.232;43.854;2023-10-19T12:17:34;14.82;;;8.95;;
73452;SDS011;61687;56.232;43.854;2023-10-19T12:20:00;15.50;;;10.48;;
73452;SDS011;61687;56.232;43.854;2023-10-19T12:22:27;15.93;;;10.57;;
73452;SDS011;61687;56.232;43.854;2023-10-19T12:25:01;14.88;;;9.30;;
73452;SDS011;61687;56.232;43.854;2023-10-19T12:27:29;15.20;;;10.37;;
73452;SDS011;61687;56.232;43.854;2023-10-19T12:29:55;14.45;;;10.00;;
73452;SDS011;61687;56.232;43.854;2023-10-19T12:32:21;14.40;;;9.45;;
73452;SDS011;61687;56.232;43.854;2023-10-19T12:34:48;17.52;;;9.00;;
73452;SDS011;61687;56.232;43.854;2023-10-19T12:37:19;15.35;;;9.38;;
73452;SDS011;61687;56.232;43.854;2023-10-19T12:39:45;14.02;;;9.68;;
73452;SDS011;61687;56.232;43.854;2023-10-19T12:42:15;16.58;;;9.20;;
73452;SDS011;61687;56.232;43.854;2023-10-19T12:44:42;13.23;;;9.48;;
73452;SDS011;61687;56.232;43.854;2023-10-19T12:47:10;13.05;;;9.05;;
73452;SDS011;61687;56.232;43.854;2023-10-19T12:49:39;16.03;;;10.20;;
73452;SDS011;61687;56.232;43.854;2023-10-19T12:52:09;14.00;;;9.52;;
73452;SDS011;61687;56.232;43.854;2023-10-19T12:54:36;14.98;;;9.13;;
73452;SDS011;61687;56.232;43.854;2023-10-19T12:57:03;16.77;;;9.98;;
73452;SDS011;61687;56.232;43.854;2023-10-19T12:59:32;14.93;;;9.35;;
73452;SDS011;61687;56.232;43.854;2023-10-19T13:01:59;13.73;;;9.63;;
73452;SDS011;61687;56.232;43.854;2023-10-19T13:04:28;16.08;;;10.07;;
73452;SDS011;61687;56.232;43.854;2023-10-19T13:06:56;14.13;;;9.30;;
73452;SDS011;61687;56.232;43.854;2023-10-19T13:09:25;16.73;;;10.00;;
73452;SDS011;61687;56.232;43.854;2023-10-19T13:11:59;15.68;;;9.85;;
73452;SDS011;61687;56.232;43.854;2023-10-19T13:14:27;13.88;;;9.35;;
73452;SDS011;61687;56.232;43.854;2023-10-19T13:16:53;15.20;;;9.80;;
73452;SDS011;61687;56.232;43.854;2023-10-19T13:19:21;17.02;;;10.50;;
73452;SDS011;61687;56.232;43.854;2023-10-19T13:21:52;15.40;;;10.77;;
73452;SDS011;61687;56.232;43.854;2023-10-19T13:24:18;16.00;;;9.73;;
73452;SDS011;61687;56.232;43.854;2023-10-19T13:26:47;14.17;;;8.90;;
73452;SDS011;61687;56.232;43.854;2023-10-19T13:29:14;14.43;;;9.35;;
73452;SDS011;61687;56.232;43.854;2023-10-19T13:31:45;17.35;;;9.70;;
73452;SDS011;61687;56.232;43.854;2023-10-19T13:34:15;15.32;;;9.27;;
73452;SDS011;61687;56.232;43.854;2023-10-19T13:36:42;14.82;;;9.60;;
73452;SDS011;61687;56.232;43.854;2023-10-19T13:39:10;12.50;;;8.87;;
73452;SDS011;61687;56.232;43.854;2023-10-19T13:41:43;13.15;;;7.38;;
73452;SDS011;61687;56.232;43.854;2023-10-19T13:44:10;12.85;;;7.85;;
73452;SDS011;61687;56.232;43.854;2023-10-19T13:46:37;12.60;;;7.80;;
73452;SDS011;61687;56.232;43.854;2023-10-19T13:49:03;12.30;;;7.78;;
73452;SDS011;61687;56.232;43.854;2023-10-19T13:51:31;9.80;;;6.47;;
73452;SDS011;61687;56.232;43.854;2023-10-19T13:53:57;12.65;;;7.55;;
73452;SDS011;61687;56.232;43.854;2023-10-19T13:56:23;11.85;;;6.80;;
73452;SDS011;61687;56.232;43.854;2023-10-19T13:58:49;11.23;;;7.03;;
73452;SDS011;61687;56.232;43.854;2023-10-19T14:01:17;11.23;;;7.17;;
73452;SDS011;61687;56.232;43.854;2023-10-19T14:03:43;10.52;;;5.97;;
73452;SDS011;61687;56.232;43.854;2023-10-19T14:06:13;10.73;;;6.32;;
73452;SDS011;61687;56.232;43.854;2023-10-19T14:08:39;9.68;;;6.22;;
73452;SDS011;61687;56.232;43.854;2023-10-19T14:11:05;9.40;;;6.13;;
73452;SDS011;61687;56.232;43.854;2023-10-19T14:13:33;9.48;;;6.32;;
73452;SDS011;61687;56.232;43.854;2023-10-19T14:15:59;11.07;;;6.68;;
73452;SDS011;61687;56.232;43.854;2023-10-19T14:18:24;10.77;;;7.75;;
73452;SDS011;61687;56.232;43.854;2023-10-19T14:20:51;10.32;;;6.82;;
73452;SDS011;61687;56.232;43.854;2023-10-19T14:23:17;12.35;;;7.28;;
73452;SDS011;61687;56.232;43.854;2023-10-19T14:25:43;11.38;;;7.63;;
73452;SDS011;61687;56.232;43.854;2023-10-19T14:28:10;14.85;;;8.57;;
73452;SDS011;61687;56.232;43.854;2023-10-19T14:30:37;11.47;;;7.43;;
73452;SDS011;61687;56.232;43.854;2023-10-19T14:33:03;14.68;;;7.97;;
73452;SDS011;61687;56.232;43.854;2023-10-19T14:35:31;12.20;;;7.40;;
73452;SDS011;61687;56.232;43.854;2023-10-19T14:37:57;12.57;;;7.72;;
73452;SDS011;61687;56.232;43.854;2023-10-19T14:40:26;13.50;;;7.78;;
73452;SDS011;61687;56.232;43.854;2023-10-19T14:42:55;11.70;;;7.47;;
73452;SDS011;61687;56.232;43.854;2023-10-19T14:45:25;11.70;;;7.47;;
73452;SDS011;61687;56.232;43.854;2023-10-19T14:47:55;11.73;;;7.50;;
73452;SDS011;61687;56.232;43.854;2023-10-19T14:50:25;10.73;;;7.10;;
73452;SDS011;61687;56.232;43.854;2023-10-19T14:52:54;11.60;;;7.43;;